Time;durP1;ratioP1;P1;durP2;ratioP2;P2;SDS_P1;SDS_P2;PMS_P1;PMS_P2;Temp;Humidity;BMP_temperature;BMP_pressure;BME280_temperature;BME280_humidity;BME280_pressure;Samples;Min_cycle;Max_cycle;Signal;HPM_P1;HPM_P2
2023/10/02 00:00:39;;;;;;;;;;;12.20;99.90;;;;;;5083498;28;19930;-74
2023/10/02 00:03:09;;;;;;;;;;;12.20;99.90;;;;;;5086351;28;19928;-74
2023/10/02 00:05:41;;;;;;;;;;;12.10;99.90;;;;;;5086057;28;19921;-73
2023/10/02 00:08:08;;;;;;;;;;;12.20;99.90;;;;;;5086676;28;19920;-74
2023/10/02 00:10:34;;;;;;;;;;;12.10;99.90;;;;;;5086282;28;20118;-74
2023/10/02 00:13:00;;;;;;;;;;;12.00;99.90;;;;;;5086659;28;19924;-74
2023/10/02 00:15:27;;;;;;;;;;;12.00;99.90;;;;;;5086041;28;19988;-74
2023/10/02 00:17:53;;;;;;;;;;;12.00;99.90;;;;;;5086096;28;19987;-74
2023/10/02 00:20:22;;;;;;;;;;;12.00;99.90;;;;;;5085053;28;19992;-74
2023/10/02 00:22:50;;;;;;;;;;;11.90;99.90;;;;;;5086205;28;19928;-74
2023/10/02 00:25:17;;;;;;;;;;;11.90;99.90;;;;;;5085760;28;19951;-74
2023/10/02 00:27:46;;;;;;;;;;;11.80;99.90;;;;;;5086059;28;19987;-74
2023/10/02 00:30:13;;;;;;;;;;;11.80;99.90;;;;;;5089182;28;20210;-74
2023/10/02 00:32:41;;;;;;;;;;;11.80;99.90;;;;;;5086151;28;19924;-73
2023/10/02 00:35:10;;;;;;;;;;;11.70;99.90;;;;;;5085355;28;19920;-74
2023/10/02 00:37:44;;;;;;;;;;;11.70;99.90;;;;;;5081432;28;19922;-74
2023/10/02 00:40:13;;;;;;;;;;;11.70;99.90;;;;;;5091103;28;19955;-74
2023/10/02 00:42:39;;;;;;;;;;;11.70;99.90;;;;;;5095670;28;20120;-74
2023/10/02 00:45:08;;;;;;;;;;;11.60;99.90;;;;;;5085213;28;19916;-74
2023/10/02 00:47:48;;;;;;;;;;;11.60;99.90;;;;;;5085794;28;19983;-74
2023/10/02 00:50:18;;;;;;;;;;;11.60;99.90;;;;;;5082911;28;19920;-74
2023/10/02 00:52:50;;;;;;;;;;;11.60;99.90;;;;;;5090475;28;20160;-73
2023/10/02 00:55:19;;;;;;;;;;;11.60;99.90;;;;;;5087731;28;19920;-73
2023/10/02 00:57:46;;;;;;;;;;;11.60;99.90;;;;;;5085405;28;19928;-73
2023/10/02 01:00:30;;;;;;;;;;;11.50;99.90;;;;;;5085384;28;19928;-75
2023/10/02 01:02:58;;;;;;;;;;;11.50;99.90;;;;;;5085332;28;19966;-75
2023/10/02 01:05:30;;;;;;;;;;;11.50;99.90;;;;;;5085107;28;19927;-75
2023/10/02 01:07:58;;;;;;;;;;;11.50;99.90;;;;;;5085532;28;19924;-75
2023/10/02 01:10:29;;;;;;;;;;;11.50;99.90;;;;;;5085321;28;19920;-75
2023/10/02 01:13:02;;;;;;;;;;;11.40;99.90;;;;;;5084654;28;20137;-75
2023/10/02 01:15:29;;;;;;;;;;;11.40;99.90;;;;;;5084359;28;19927;-75
2023/10/02 01:18:18;;;;;;;;;;;11.40;99.90;;;;;;5085299;28;19971;-75
2023/10/02 01:20:48;;;;;;;;;;;11.40;99.90;;;;;;5082699;28;19974;-75
2023/10/02 01:23:17;;;;;;;;;;;11.40;99.90;;;;;;5085084;28;19927;-75
2023/10/02 01:25:46;;;;;;;;;;;11.30;99.90;;;;;;5084347;28;19920;-73
2023/10/02 01:28:15;;;;;;;;;;;11.30;99.90;;;;;;5084657;28;19920;-73
2023/10/02 01:30:44;;;;;;;;;;;11.30;99.90;;;;;;5084936;28;19920;-74
2023/10/02 01:33:14;;;;;;;;;;;11.20;99.90;;;;;;5084425;28;19927;-74
2023/10/02 01:35:46;;;;;;;;;;;11.20;99.90;;;;;;5083946;28;19920;-74
2023/10/02 01:38:13;;;;;;;;;;;11.20;99.90;;;;;;5087915;28;20125;-74
2023/10/02 01:40:41;;;;;;;;;;;11.20;99.90;;;;;;5084664;28;19920;-74
2023/10/02 01:43:13;;;;;;;;;;;11.20;99.90;;;;;;5089306;28;19943;-74
2023/10/02 01:45:42;;;;;;;;;;;11.20;99.90;;;;;;5079588;28;19920;-74
2023/10/02 01:48:12;;;;;;;;;;;11.10;99.90;;;;;;5084457;28;20210;-74
2023/10/02 01:50:39;;;;;;;;;;;11.10;99.90;;;;;;5081700;28;19920;-74
2023/10/02 01:53:06;;;;;;;;;;;11.00;99.90;;;;;;5084626;28;19974;-74
2023/10/02 01:55:36;;;;;;;;;;;11.00;99.90;;;;;;5083980;28;20166;-74
2023/10/02 02:00:46;;;;;;;;;;;11.00;99.90;;;;;;5081701;28;19924;-74
2023/10/02 02:03:16;;;;;;;;;;;10.90;99.90;;;;;;5084235;28;19920;-73
2023/10/02 02:05:46;;;;;;;;;;;11.00;99.90;;;;;;5087911;28;19928;-74
2023/10/02 02:08:25;;;;;;;;;;;10.90;99.90;;;;;;5087787;28;19921;-74
2023/10/02 02:10:53;;;;;;;;;;;10.90;99.90;;;;;;5094624;28;19920;-74
2023/10/02 02:13:21;;;;;;;;;;;10.90;99.90;;;;;;5085341;28;19935;-74
2023/10/02 02:15:51;;;;;;;;;;;10.90;99.90;;;;;;5083668;28;19956;-74
2023/10/02 02:18:20;;;;;;;;;;;10.90;99.90;;;;;;5084142;28;19927;-74
2023/10/02 02:20:58;;;;;;;;;;;10.90;99.90;;;;;;5085790;28;19963;-74
2023/10/02 02:23:26;;;;;;;;;;;10.90;99.90;;;;;;5087545;28;19920;-74
2023/10/02 02:25:53;;;;;;;;;;;10.80;99.90;;;;;;5083497;28;19926;-74
2023/10/02 02:28:20;;;;;;;;;;;10.80;99.90;;;;;;5083693;28;19983;-74
2023/10/02 02:30:47;;;;;;;;;;;10.80;99.90;;;;;;5083941;28;19962;-74
2023/10/02 02:33:16;;;;;;;;;;;10.80;99.90;;;;;;5083875;28;19920;-74
2023/10/02 02:35:44;;;;;;;;;;;10.80;99.90;;;;;;5082991;28;20206;-74
2023/10/02 02:38:14;;;;;;;;;;;10.70;99.90;;;;;;5082117;28;19962;-74
2023/10/02 02:40:42;;;;;;;;;;;10.70;99.90;;;;;;5083988;28;19979;-74
2023/10/02 02:43:13;;;;;;;;;;;10.70;99.90;;;;;;5082740;28;20218;-74
2023/10/02 02:45:40;;;;;;;;;;;10.60;99.90;;;;;;5080549;28;20145;-74
2023/10/02 02:48:07;;;;;;;;;;;10.60;99.90;;;;;;5087939;28;19920;-74
2023/10/02 02:50:36;;;;;;;;;;;10.60;99.90;;;;;;5084149;28;20102;-74
2023/10/02 02:53:21;;;;;;;;;;;10.60;99.90;;;;;;5083712;28;19920;-74
2023/10/02 02:55:59;;;;;;;;;;;10.60;99.90;;;;;;5078109;28;19920;-74
2023/10/02 02:58:29;;;;;;;;;;;10.50;99.90;;;;;;5084960;28;19928;-74
2023/10/02 03:00:57;;;;;;;;;;;10.60;99.90;;;;;;5083323;28;19921;-74
2023/10/02 03:06:16;;;;;;;;;;;10.50;99.90;;;;;;5078387;28;19916;-74
2023/10/02 03:08:44;;;;;;;;;;;10.50;99.90;;;;;;5081150;28;19932;-74
2023/10/02 03:11:11;;;;;;;;;;;10.40;99.90;;;;;;5083456;28;19920;-74
2023/10/02 03:13:39;;;;;;;;;;;10.40;99.90;;;;;;5082681;28;19920;-74
2023/10/02 03:16:12;;;;;;;;;;;10.40;99.90;;;;;;5083002;28;20118;-74
2023/10/02 03:18:43;;;;;;;;;;;10.40;99.90;;;;;;5083428;28;19966;-74
2023/10/02 03:21:21;;;;;;;;;;;10.40;99.90;;;;;;5083615;28;20137;-74
2023/10/02 03:23:49;;;;;;;;;;;10.40;99.90;;;;;;5081401;28;19921;-74
2023/10/02 03:26:26;;;;;;;;;;;10.40;99.90;;;;;;5082571;28;20218;-74
2023/10/02 03:29:00;;;;;;;;;;;10.30;99.90;;;;;;5083093;28;20236;-74
2023/10/02 03:31:36;;;;;;;;;;;10.30;99.90;;;;;;5083586;28;19927;-73
2023/10/02 03:34:24;;;;;;;;;;;10.20;99.90;;;;;;5078746;28;19984;-73
2023/10/02 03:36:52;;;;;;;;;;;10.20;99.90;;;;;;5084131;28;19928;-73
2023/10/02 03:39:51;;;;;;;;;;;10.20;99.90;;;;;;5086399;28;19920;-73
2023/10/02 03:42:13;;;;;;;;;;;10.20;99.90;;;;;;5079435;28;19921;-73
2023/10/02 03:44:40;;;;;;;;;;;10.20;99.90;;;;;;5085908;28;19921;-74
2023/10/02 03:47:12;;;;;;;;;;;10.10;99.90;;;;;;5094852;28;19927;-73
2023/10/02 03:49:40;;;;;;;;;;;10.20;99.90;;;;;;5087203;28;19966;-74
2023/10/02 03:52:08;;;;;;;;;;;10.20;99.90;;;;;;5083270;28;19943;-74
2023/10/02 03:54:35;;;;;;;;;;;10.20;99.90;;;;;;5087576;28;19927;-74
2023/10/02 03:57:02;;;;;;;;;;;10.20;99.90;;;;;;5091048;28;19948;-74
2023/10/02 03:59:32;;;;;;;;;;;10.20;99.90;;;;;;5091530;28;19920;-74
2023/10/02 04:02:24;;;;;;;;;;;10.20;99.90;;;;;;5099751;28;19927;-74
2023/10/02 04:04:46;;;;;;;;;;;10.10;99.90;;;;;;5088955;28;20118;-74
2023/10/02 04:07:14;;;;;;;;;;;10.10;99.90;;;;;;5085867;28;19921;-75
2023/10/02 04:09:41;;;;;;;;;;;10.00;99.90;;;;;;5086304;28;20260;-74
2023/10/02 04:12:12;;;;;;;;;;;10.00;99.90;;;;;;5086525;28;19956;-74
2023/10/02 04:14:39;;;;;;;;;;;10.00;99.90;;;;;;5083242;28;19920;-74
2023/10/02 04:17:20;;;;;;;;;;;10.00;99.90;;;;;;5085772;28;19956;-75
2023/10/02 04:19:48;;;;;;;;;;;10.00;99.90;;;;;;5085806;28;19924;-76
2023/10/02 04:22:19;;;;;;;;;;;10.00;99.90;;;;;;5086048;28;19916;-74
2023/10/02 04:24:58;;;;;;;;;;;10.00;99.90;;;;;;5086194;28;19966;-74
2023/10/02 04:27:28;;;;;;;;;;;9.90;99.90;;;;;;5085859;28;19921;-74
2023/10/02 04:32:39;;;;;;;;;;;9.90;99.90;;;;;;5083207;28;19923;-74
2023/10/02 04:35:40;;;;;;;;;;;9.90;99.90;;;;;;5085697;28;19920;-75
2023/10/02 04:37:57;;;;;;;;;;;9.90;99.90;;;;;;5083427;28;19916;-74
2023/10/02 04:40:23;;;;;;;;;;;9.90;99.90;;;;;;5086053;28;19927;-75
2023/10/02 04:43:09;;;;;;;;;;;9.90;99.90;;;;;;5086063;28;19964;-75
2023/10/02 04:45:36;;;;;;;;;;;9.90;99.90;;;;;;5085265;28;19927;-74
2023/10/02 04:48:07;;;;;;;;;;;9.90;99.90;;;;;;5090780;28;19922;-75
2023/10/02 04:50:36;;;;;;;;;;;9.90;99.90;;;;;;5087083;28;19920;-74
2023/10/02 04:53:19;;;;;;;;;;;9.90;99.90;;;;;;5090675;28;19955;-75
2023/10/02 04:55:48;;;;;;;;;;;9.90;99.90;;;;;;5082905;28;19920;-74
2023/10/02 04:58:19;;;;;;;;;;;9.90;99.90;;;;;;5085376;28;19920;-75
2023/10/02 05:03:27;;;;;;;;;;;9.80;99.90;;;;;;5084289;28;19955;-75
2023/10/02 05:05:53;;;;;;;;;;;9.80;99.90;;;;;;5084733;28;19980;-75
2023/10/02 05:08:22;;;;;;;;;;;9.80;99.90;;;;;;5085053;28;19917;-75
2023/10/02 05:10:49;;;;;;;;;;;9.80;99.90;;;;;;5085565;28;19921;-75
2023/10/02 05:13:45;;;;;;;;;;;9.80;99.90;;;;;;5085333;28;19916;-75
2023/10/02 05:16:12;;;;;;;;;;;9.80;99.90;;;;;;5080391;28;19928;-74
2023/10/02 05:18:39;;;;;;;;;;;9.80;99.90;;;;;;5082182;28;19917;-74
2023/10/02 05:21:07;;;;;;;;;;;9.80;99.90;;;;;;5085498;28;19935;-74
2023/10/02 05:23:36;;;;;;;;;;;9.80;99.90;;;;;;5085173;28;19921;-74
2023/10/02 05:26:02;;;;;;;;;;;9.80;99.90;;;;;;5078136;28;19921;-73
2023/10/02 05:28:42;;;;;;;;;;;9.80;99.90;;;;;;5085068;28;19924;-72
2023/10/02 05:31:10;;;;;;;;;;;9.80;99.90;;;;;;5081098;28;19921;-75
2023/10/02 05:33:37;;;;;;;;;;;9.80;99.90;;;;;;5088689;28;19979;-75
2023/10/02 05:36:05;;;;;;;;;;;9.80;99.90;;;;;;5083601;28;19991;-75
2023/10/02 05:38:33;;;;;;;;;;;9.90;99.90;;;;;;5084462;28;19964;-75
2023/10/02 05:41:03;;;;;;;;;;;9.80;99.90;;;;;;5084916;28;19927;-76
2023/10/02 05:43:31;;;;;;;;;;;9.80;99.90;;;;;;5089792;28;19920;-74
2023/10/02 05:45:58;;;;;;;;;;;9.80;99.90;;;;;;5084467;28;19965;-74
2023/10/02 05:48:37;;;;;;;;;;;9.80;99.90;;;;;;5085013;28;19987;-75
2023/10/02 05:51:12;;;;;;;;;;;9.80;99.90;;;;;;5080202;28;19920;-75
2023/10/02 05:53:53;;;;;;;;;;;9.70;99.90;;;;;;5081267;28;19927;-75
2023/10/02 05:56:21;;;;;;;;;;;9.70;99.90;;;;;;5085139;28;19962;-75
2023/10/02 05:58:49;;;;;;;;;;;9.80;99.90;;;;;;5090476;28;20257;-75
2023/10/02 06:01:26;;;;;;;;;;;9.80;99.90;;;;;;5084282;28;20259;-75
2023/10/02 06:03:57;;;;;;;;;;;9.80;99.90;;;;;;5088377;28;19921;-75
2023/10/02 06:06:25;;;;;;;;;;;9.80;99.90;;;;;;5084076;28;19921;-75
2023/10/02 06:08:54;;;;;;;;;;;9.80;99.90;;;;;;5084200;28;20256;-75
2023/10/02 06:11:32;;;;;;;;;;;9.80;99.90;;;;;;5084125;28;19934;-75
2023/10/02 06:14:09;;;;;;;;;;;9.90;99.90;;;;;;5088797;28;19986;-76
2023/10/02 06:16:37;;;;;;;;;;;9.90;99.90;;;;;;5083632;28;19955;-75
2023/10/02 06:19:06;;;;;;;;;;;10.00;99.90;;;;;;5078515;28;20117;-76
2023/10/02 06:21:40;;;;;;;;;;;10.00;99.90;;;;;;5083597;28;19928;-75
2023/10/02 06:24:09;;;;;;;;;;;10.00;99.90;;;;;;5083467;28;19921;-75
2023/10/02 06:26:49;;;;;;;;;;;10.00;99.90;;;;;;5083267;28;20091;-75
2023/10/02 06:29:22;;;;;;;;;;;10.00;99.90;;;;;;5083991;28;19927;-75
2023/10/02 06:31:51;;;;;;;;;;;10.00;99.90;;;;;;5083966;28;19920;-75
2023/10/02 06:34:18;;;;;;;;;;;10.10;99.90;;;;;;5083790;28;19927;-75
2023/10/02 06:36:48;;;;;;;;;;;10.10;99.90;;;;;;5083337;28;19972;-75
2023/10/02 06:39:17;;;;;;;;;;;10.20;99.90;;;;;;5083722;28;19920;-75
2023/10/02 06:41:46;;;;;;;;;;;10.20;99.90;;;;;;5083533;28;19920;-75
2023/10/02 06:44:16;;;;;;;;;;;10.30;99.90;;;;;;5083248;28;19927;-75
2023/10/02 06:46:52;;;;;;;;;;;10.30;99.90;;;;;;5083155;28;19991;-75
2023/10/02 06:49:20;;;;;;;;;;;10.40;99.90;;;;;;5083404;28;19920;-75
2023/10/02 06:51:49;;;;;;;;;;;10.40;99.90;;;;;;5083749;28;19921;-75
2023/10/02 06:54:19;;;;;;;;;;;10.50;99.90;;;;;;5083259;28;19987;-75
2023/10/02 06:56:47;;;;;;;;;;;10.50;99.90;;;;;;5082561;28;19935;-75
2023/10/02 06:59:14;;;;;;;;;;;10.60;99.90;;;;;;5083409;28;19980;-75
2023/10/02 07:02:01;;;;;;;;;;;10.60;99.90;;;;;;5079626;28;20122;-75
2023/10/02 07:04:30;;;;;;;;;;;10.70;99.90;;;;;;5085491;28;19920;-75
2023/10/02 07:07:02;;;;;;;;;;;10.80;99.90;;;;;;5083099;28;20171;-72
2023/10/02 07:09:34;;;;;;;;;;;10.90;99.90;;;;;;5083298;28;19927;-75
2023/10/02 07:12:09;;;;;;;;;;;11.00;99.90;;;;;;5080220;28;20314;-74
2023/10/02 07:14:39;;;;;;;;;;;11.10;99.90;;;;;;5082730;28;19979;-75
2023/10/02 07:17:16;;;;;;;;;;;11.20;99.90;;;;;;5086056;28;20395;-72
2023/10/02 07:19:48;;;;;;;;;;;11.30;99.90;;;;;;5080733;28;20121;-74
2023/10/02 07:22:17;;;;;;;;;;;11.40;99.90;;;;;;5083009;28;19932;-74
2023/10/02 07:24:45;;;;;;;;;;;11.50;99.90;;;;;;5083958;28;20301;-73
2023/10/02 07:27:23;;;;;;;;;;;11.70;99.90;;;;;;5084332;28;20233;-74
2023/10/02 07:29:52;;;;;;;;;;;11.80;99.90;;;;;;5080287;28;19989;-74
2023/10/02 07:32:19;;;;;;;;;;;11.90;99.90;;;;;;5087117;28;19921;-74
2023/10/02 07:34:46;;;;;;;;;;;12.10;99.90;;;;;;5086863;28;19924;-74
2023/10/02 07:37:16;;;;;;;;;;;12.20;99.90;;;;;;5085935;28;20077;-74
2023/10/02 07:39:42;;;;;;;;;;;12.20;99.90;;;;;;5082808;28;20107;-74
2023/10/02 07:42:10;;;;;;;;;;;12.30;99.90;;;;;;5086664;28;20175;-74
2023/10/02 07:44:38;;;;;;;;;;;12.50;99.90;;;;;;5082258;28;19932;-74
2023/10/02 07:47:10;;;;;;;;;;;12.60;99.90;;;;;;5082562;28;19920;-74
2023/10/02 07:49:40;;;;;;;;;;;12.70;99.90;;;;;;5093549;28;19983;-74
2023/10/02 07:52:08;;;;;;;;;;;12.90;99.90;;;;;;5089728;28;19948;-74
2023/10/02 07:54:44;;;;;;;;;;;12.90;99.90;;;;;;5085914;28;19983;-74
2023/10/02 07:57:13;;;;;;;;;;;13.00;99.90;;;;;;5086010;28;19975;-75
2023/10/02 07:59:43;;;;;;;;;;;13.20;99.90;;;;;;5083289;28;19927;-74
2023/10/02 08:02:22;;;;;;;;;;;13.30;99.90;;;;;;5082685;28;20256;-74
2023/10/02 08:04:51;;;;;;;;;;;13.50;99.90;;;;;;5084672;28;19927;-74
2023/10/02 08:07:18;;;;;;;;;;;13.70;99.90;;;;;;5086980;28;19920;-73
2023/10/02 08:09:48;;;;;;;;;;;13.90;99.90;;;;;;5085844;28;19927;-73
2023/10/02 08:12:29;;;;;;;;;;;14.10;99.90;;;;;;5086009;28;19920;-73
2023/10/02 08:14:59;;;;;;;;;;;14.20;99.90;;;;;;5086141;28;19927;-74
2023/10/02 08:17:59;;;;;;;;;;;14.30;99.90;;;;;;5085840;28;20214;-74
2023/10/02 08:20:24;;;;;;;;;;;14.40;99.90;;;;;;5078780;28;19921;-74
2023/10/02 08:22:52;;;;;;;;;;;14.50;99.90;;;;;;5086243;28;19965;-74
2023/10/02 08:25:23;;;;;;;;;;;14.70;99.90;;;;;;5081543;28;19920;-74
2023/10/02 08:27:55;;;;;;;;;;;14.80;99.90;;;;;;5085838;28;19958;-74
2023/10/02 08:30:31;;;;;;;;;;;14.90;99.90;;;;;;5082221;28;19921;-74
2023/10/02 08:33:05;;;;;;;;;;;15.00;99.90;;;;;;5085963;28;20153;-74
2023/10/02 08:35:32;;;;;;;;;;;15.20;99.90;;;;;;5081555;28;19939;-74
2023/10/02 08:37:59;;;;;;;;;;;15.40;99.90;;;;;;5085508;28;19921;-75
2023/10/02 08:40:26;;;;;;;;;;;15.50;99.90;;;;;;5085001;28;20266;-73
2023/10/02 08:42:53;;;;;;;;;;;15.70;99.90;;;;;;5079553;28;19984;-73
2023/10/02 08:45:20;;;;;;;;;;;15.90;99.90;;;;;;5082417;28;19927;-73
2023/10/02 08:47:48;;;;;;;;;;;16.20;99.90;;;;;;5085127;28;19932;-73
2023/10/02 08:50:16;;;;;;;;;;;16.30;99.90;;;;;;5085060;28;19987;-73
2023/10/02 08:52:47;;;;;;;;;;;16.60;99.90;;;;;;5084872;28;20000;-72
2023/10/02 08:55:33;;;;;;;;;;;16.60;99.90;;;;;;5077179;28;19929;-74
2023/10/02 08:58:15;;;;;;;;;;;16.80;99.90;;;;;;5081520;28;19920;-74
2023/10/02 09:01:01;;;;;;;;;;;16.90;99.90;;;;;;5082382;28;19975;-74
2023/10/02 09:03:29;;;;;;;;;;;17.10;99.90;;;;;;5083475;28;19920;-74
2023/10/02 09:06:24;;;;;;;;;;;17.20;99.90;;;;;;5083890;28;19920;-74
2023/10/02 09:09:15;;;;;;;;;;;17.40;99.90;;;;;;5081164;28;19920;-74
2023/10/02 09:11:34;;;;;;;;;;;17.50;99.90;;;;;;5081412;28;19962;-74
2023/10/02 09:14:12;;;;;;;;;;;17.60;99.90;;;;;;5081292;28;19956;-73
2023/10/02 09:16:39;;;;;;;;;;;17.70;99.90;;;;;;5081044;28;20206;-74
2023/10/02 09:19:28;;;;;;;;;;;17.90;99.90;;;;;;5082133;28;20004;-74
2023/10/02 09:22:06;;;;;;;;;;;18.00;99.90;;;;;;5082562;28;19991;-74
2023/10/02 09:24:34;;;;;;;;;;;18.20;99.90;;;;;;5080426;28;19991;-74
2023/10/02 09:27:20;;;;;;;;;;;18.30;99.90;;;;;;5081511;28;20227;-74
2023/10/02 09:29:47;;;;;;;;;;;18.40;99.90;;;;;;5078601;28;19920;-73
2023/10/02 09:32:21;;;;;;;;;;;18.60;99.90;;;;;;5080960;28;19988;-74
2023/10/02 09:37:35;;;;;;;;;;;18.80;99.90;;;;;;5080144;28;19982;-74
2023/10/02 09:40:14;;;;;;;;;;;19.10;99.90;;;;;;5078645;28;19928;-74
2023/10/02 09:42:45;;;;;;;;;;;19.20;99.90;;;;;;5081564;28;19983;-74
2023/10/02 09:45:16;;;;;;;;;;;19.30;99.90;;;;;;5079857;28;20175;-73
2023/10/02 09:47:43;;;;;;;;;;;19.50;99.90;;;;;;5083714;28;19942;-74
2023/10/02 09:50:23;;;;;;;;;;;19.60;99.90;;;;;;5080716;28;19927;-74
2023/10/02 09:52:59;;;;;;;;;;;19.70;99.90;;;;;;5078037;28;19920;-74
2023/10/02 09:55:37;;;;;;;;;;;19.80;99.90;;;;;;5081841;28;20578;-74
2023/10/02 09:58:26;;;;;;;;;;;20.00;99.90;;;;;;5070726;28;19920;-73
2023/10/02 10:01:21;;;;;;;;;;;20.10;99.90;;;;;;5081703;28;19921;-73
2023/10/02 10:03:50;;;;;;;;;;;20.30;99.90;;;;;;5074993;28;20145;-73
2023/10/02 10:06:19;;;;;;;;;;;20.40;99.90;;;;;;5080129;28;20214;-74
2023/10/02 10:09:20;;;;;;;;;;;20.60;99.90;;;;;;5083385;28;19983;-74
2023/10/02 10:12:17;;;;;;;;;;;20.70;99.90;;;;;;5084586;28;19915;-73
2023/10/02 10:14:37;;;;;;;;;;;20.90;99.90;;;;;;5079119;28;19924;-74
2023/10/02 10:17:12;;;;;;;;;;;21.10;99.90;;;;;;5082685;28;19975;-74
2023/10/02 10:19:38;;;;;;;;;;;21.30;99.90;;;;;;5078895;28;19992;-74
2023/10/02 10:22:26;;;;;;;;;;;21.50;99.90;;;;;;5073347;28;19930;-72
2023/10/02 10:25:22;;;;;;;;;;;21.60;99.90;;;;;;5076995;28;19983;-74
2023/10/02 10:28:05;;;;;;;;;;;21.80;99.90;;;;;;5083989;28;19974;-74
2023/10/02 10:30:33;;;;;;;;;;;21.90;99.90;;;;;;5088742;28;19988;-74
2023/10/02 10:33:20;;;;;;;;;;;22.10;99.90;;;;;;5085985;28;19958;-74
2023/10/02 10:35:51;;;;;;;;;;;22.20;99.90;;;;;;5080618;28;19921;-74
2023/10/02 10:38:36;;;;;;;;;;;22.30;99.90;;;;;;5087882;28;19916;-74
2023/10/02 10:41:05;;;;;;;;;;;22.40;99.90;;;;;;5078700;28;19924;-75
2023/10/02 10:43:46;;;;;;;;;;;22.60;99.90;;;;;;5082627;28;19959;-74
2023/10/02 10:46:19;;;;;;;;;;;22.60;99.90;;;;;;5081765;28;19928;-74
2023/10/02 10:48:48;;;;;;;;;;;22.80;99.90;;;;;;5082343;28;19995;-74
2023/10/02 10:51:21;;;;;;;;;;;23.00;99.90;;;;;;5083024;28;20011;-75
2023/10/02 10:53:52;;;;;;;;;;;23.20;99.90;;;;;;5082622;28;20265;-74
2023/10/02 10:56:19;;;;;;;;;;;23.30;99.90;;;;;;5083759;28;19925;-75
2023/10/02 10:58:47;;;;;;;;;;;23.50;99.90;;;;;;5079351;28;19921;-75
2023/10/02 11:01:16;;;;;;;;;;;23.60;99.90;;;;;;5079123;28;19932;-72
2023/10/02 11:03:43;;;;;;;;;;;23.70;99.90;;;;;;5079869;28;19983;-75
2023/10/02 11:06:11;;;;;;;;;;;23.80;99.90;;;;;;5078794;28;19928;-74
2023/10/02 11:08:38;;;;;;;;;;;24.00;99.90;;;;;;5079431;28;19920;-71
2023/10/02 11:11:11;;;;;;;;;;;24.10;99.90;;;;;;5082812;28;19920;-74
2023/10/02 11:13:59;;;;;;;;;;;24.30;99.90;;;;;;5079765;28;20091;-73
2023/10/02 11:16:31;;;;;;;;;;;24.30;99.90;;;;;;5081074;28;20003;-73
2023/10/02 11:19:14;;;;;;;;;;;24.50;99.90;;;;;;5082831;28;19924;-75
2023/10/02 11:21:46;;;;;;;;;;;24.60;99.90;;;;;;5083340;28;20251;-75
2023/10/02 11:24:20;;;;;;;;;;;24.70;99.90;;;;;;5079969;28;19988;-75
2023/10/02 11:26:49;;;;;;;;;;;24.80;99.90;;;;;;5079167;28;19924;-75
2023/10/02 11:29:21;;;;;;;;;;;25.00;99.90;;;;;;5080629;28;19951;-75
2023/10/02 11:31:57;;;;;;;;;;;25.10;99.90;;;;;;5084066;28;20087;-73
2023/10/02 11:34:24;;;;;;;;;;;25.20;99.90;;;;;;5078824;28;19980;-74
2023/10/02 11:36:53;;;;;;;;;;;25.40;99.90;;;;;;5081995;28;20214;-74
2023/10/02 11:39:26;;;;;;;;;;;25.60;99.90;;;;;;5077407;28;19920;-75
2023/10/02 11:41:54;;;;;;;;;;;25.60;99.90;;;;;;5079624;28;19966;-74
2023/10/02 11:44:21;;;;;;;;;;;25.70;99.90;;;;;;5079297;28;19956;-74
2023/10/02 11:46:48;;;;;;;;;;;25.80;99.90;;;;;;5085367;28;19987;-74
2023/10/02 11:49:15;;;;;;;;;;;26.00;99.90;;;;;;5082222;28;20210;-75
2023/10/02 11:51:43;;;;;;;;;;;26.10;99.90;;;;;;5082244;28;19962;-74
2023/10/02 11:54:11;;;;;;;;;;;26.20;99.90;;;;;;5081318;28;20290;-72
2023/10/02 11:56:38;;;;;;;;;;;26.30;99.90;;;;;;5082056;28;19992;-74
2023/10/02 11:59:06;;;;;;;;;;;26.40;99.90;;;;;;5081709;28;19942;-74
2023/10/02 12:01:33;;;;;;;;;;;26.50;99.90;;;;;;5084145;28;19978;-74
2023/10/02 12:04:00;;;;;;;;;;;26.70;99.90;;;;;;5081177;28;19952;-74
2023/10/02 12:06:27;;;;;;;;;;;26.80;99.90;;;;;;5080294;28;20300;-74
2023/10/02 12:08:56;;;;;;;;;;;26.90;99.90;;;;;;5087505;28;20177;-73
2023/10/02 12:11:24;;;;;;;;;;;27.00;99.90;;;;;;5080403;28;19958;-73
2023/10/02 12:13:51;;;;;;;;;;;27.10;99.90;;;;;;5082220;28;20149;-73
2023/10/02 12:16:21;;;;;;;;;;;27.30;99.90;;;;;;5077566;28;19920;-74
2023/10/02 12:18:49;;;;;;;;;;;27.40;99.90;;;;;;5085740;28;19966;-73
2023/10/02 12:21:16;;;;;;;;;;;27.50;99.90;;;;;;5085916;28;19927;-73
2023/10/02 12:23:43;;;;;;;;;;;27.60;99.90;;;;;;5082785;28;20004;-72
2023/10/02 12:26:10;;;;;;;;;;;27.70;99.90;;;;;;5085173;28;19943;-73
2023/10/02 12:28:37;;;;;;;;;;;27.90;99.90;;;;;;5088942;28;20095;-73
2023/10/02 12:31:08;;;;;;;;;;;28.00;99.90;;;;;;5083025;28;19974;-75
2023/10/02 12:33:36;;;;;;;;;;;28.10;99.90;;;;;;5082810;28;19920;-74
2023/10/02 12:36:10;;;;;;;;;;;28.20;99.90;;;;;;5083190;28;20314;-75
2023/10/02 12:38:38;;;;;;;;;;;28.30;99.90;;;;;;5085039;28;19958;-73
2023/10/02 12:41:11;;;;;;;;;;;28.30;99.90;;;;;;5085376;28;19989;-73
2023/10/02 12:43:37;;;;;;;;;;;28.30;99.90;;;;;;5081795;28;20347;-75
2023/10/02 12:46:05;;;;;;;;;;;28.40;99.90;;;;;;5081501;28;20294;-73
2023/10/02 12:48:33;;;;;;;;;;;28.40;99.90;;;;;;5088552;28;19921;-71
2023/10/02 12:51:05;;;;;;;;;;;28.40;99.90;;;;;;5086940;28;19939;-72
2023/10/02 12:53:32;;;;;;;;;;;28.50;99.90;;;;;;5090116;28;19924;-73
2023/10/02 12:55:59;;;;;;;;;;;28.60;99.90;;;;;;5088771;28;19920;-74
2023/10/02 12:58:27;;;;;;;;;;;28.70;99.90;;;;;;5082116;28;20312;-73
2023/10/02 13:00:54;;;;;;;;;;;28.90;99.90;;;;;;5088966;28;19983;-73
2023/10/02 13:03:21;;;;;;;;;;;29.00;99.90;;;;;;5084498;28;20004;-74
2023/10/02 13:05:47;;;;;;;;;;;29.00;98.00;;;;;;5081402;28;19958;-74
2023/10/02 13:08:15;;;;;;;;;;;29.00;97.60;;;;;;5084323;28;19920;-72
2023/10/02 13:10:42;;;;;;;;;;;29.10;97.70;;;;;;5078237;28;20237;-73
2023/10/02 13:13:11;;;;;;;;;;;29.20;97.00;;;;;;5079141;28;19974;-74
2023/10/02 13:15:38;;;;;;;;;;;29.10;97.30;;;;;;5077076;28;19987;-74
2023/10/02 13:18:05;;;;;;;;;;;29.00;97.60;;;;;;5079536;28;19955;-74
2023/10/02 13:20:33;;;;;;;;;;;29.00;99.90;;;;;;5084631;28;19962;-74
2023/10/02 13:22:59;;;;;;;;;;;29.10;99.50;;;;;;5084279;28;19948;-74
2023/10/02 13:25:28;;;;;;;;;;;29.20;98.50;;;;;;5082741;28;19927;-77
2023/10/02 13:27:55;;;;;;;;;;;29.30;98.20;;;;;;5081073;28;19920;-72
2023/10/02 13:30:25;;;;;;;;;;;29.40;97.80;;;;;;5085156;28;19921;-74
2023/10/02 13:32:52;;;;;;;;;;;29.50;96.70;;;;;;5083667;28;19920;-74
2023/10/02 13:35:20;;;;;;;;;;;29.60;95.30;;;;;;5088773;28;19920;-74
2023/10/02 13:37:47;;;;;;;;;;;29.60;94.40;;;;;;5087855;28;20117;-75
2023/10/02 13:40:26;;;;;;;;;;;29.50;94.20;;;;;;5089445;28;19981;-74
2023/10/02 13:42:54;;;;;;;;;;;29.50;93.40;;;;;;5077035;28;19921;-74
2023/10/02 13:45:21;;;;;;;;;;;29.50;94.20;;;;;;5078641;28;20382;-74
2023/10/02 13:47:48;;;;;;;;;;;29.60;95.00;;;;;;5079064;28;19928;-73
2023/10/02 13:50:15;;;;;;;;;;;29.60;93.60;;;;;;5080459;28;19921;-74
2023/10/02 13:52:42;;;;;;;;;;;29.70;93.20;;;;;;5081018;28;19963;-73
2023/10/02 13:55:20;;;;;;;;;;;29.70;93.80;;;;;;5079651;28;20240;-72
2023/10/02 13:57:48;;;;;;;;;;;29.80;93.20;;;;;;5084726;28;19959;-74
2023/10/02 14:00:19;;;;;;;;;;;29.80;94.10;;;;;;5083069;28;19952;-74
2023/10/02 14:02:47;;;;;;;;;;;29.90;93.90;;;;;;5078973;28;20148;-74
2023/10/02 14:05:15;;;;;;;;;;;29.90;94.90;;;;;;5077360;28;19963;-75
2023/10/02 14:07:42;;;;;;;;;;;29.80;94.40;;;;;;5082986;28;19991;-76
2023/10/02 14:10:10;;;;;;;;;;;29.70;94.90;;;;;;5081898;28;19958;-73
2023/10/02 14:12:38;;;;;;;;;;;29.60;94.60;;;;;;5082496;28;19921;-73
2023/10/02 14:15:07;;;;;;;;;;;29.50;94.60;;;;;;5081074;28;19916;-73
2023/10/02 14:17:36;;;;;;;;;;;29.50;95.00;;;;;;5080866;28;19920;-73
2023/10/02 14:20:04;;;;;;;;;;;29.50;95.30;;;;;;5075119;28;19951;-74
2023/10/02 14:22:33;;;;;;;;;;;29.50;95.60;;;;;;5082241;28;19921;-73
2023/10/02 14:25:00;;;;;;;;;;;29.50;95.70;;;;;;5082371;28;19928;-75
2023/10/02 14:27:27;;;;;;;;;;;29.50;95.60;;;;;;5077730;28;20127;-75
2023/10/02 14:29:57;;;;;;;;;;;29.60;95.90;;;;;;5080349;28;19959;-77
2023/10/02 14:32:24;;;;;;;;;;;29.60;96.00;;;;;;5081023;28;19921;-73
2023/10/02 14:34:54;;;;;;;;;;;29.60;96.00;;;;;;5084064;28;19943;-76
2023/10/02 14:37:27;;;;;;;;;;;29.50;95.70;;;;;;5089837;28;20461;-77
2023/10/02 14:39:54;;;;;;;;;;;29.50;96.20;;;;;;5079948;28;19928;-75
2023/10/02 14:42:21;;;;;;;;;;;29.50;95.60;;;;;;5091665;28;19932;-77
2023/10/02 14:44:48;;;;;;;;;;;29.50;96.40;;;;;;5090982;28;19920;-73
2023/10/02 14:47:15;;;;;;;;;;;29.50;95.50;;;;;;5082718;28;19956;-75
2023/10/02 14:49:41;;;;;;;;;;;29.60;96.60;;;;;;5084606;28;19958;-75
2023/10/02 14:52:09;;;;;;;;;;;29.60;97.90;;;;;;5079942;28;19920;-75
2023/10/02 14:54:37;;;;;;;;;;;29.50;98.10;;;;;;5083682;28;19926;-73